Ship Status Report: callsign TCBX9

sailwx.info

Track history (hours):
 
Tides and Currents Weather Stations Pressure Air Temp Water Temp Dewpoint Dewpoint Depression Visibility Wind Speed Wind Dir Waves Ship Positions

Callsign TCBX9 (name unknown)

Last reported at 2016-May-03 09:33 UTC. Time now 2016-May-06 05:29 UTC.
Position N 33°44' E 032°20'.

Date/timePositionNaut miles runAvg speedWind from/ knotsBaromVisibWave heightAir tempDewpointWater temp
2016-May-03 09:33N 33°44' E 032°20'9 8.1
2016-May-03 08:25N 33°50' E 032°12'7 8.1
2016-May-03 07:33N 33°55' E 032°06'262 7.7
2016-May-01 21:23N 36°29' E 027°46'7 8.3
2016-May-01 20:31N 36°31' E 027°38'8 8.7
2016-May-01 19:34N 36°36' E 027°29'9 8.4
2016-May-01 18:31N 36°40' E 027°19'15 7.6
2016-May-01 16:29N 36°56' E 027°18'10 8.3
2016-May-01 15:15N 37°00' E 027°07'247 6.0
2016-Apr-29 22:19N 40°48' E 029°07'5 7.1
2016-Apr-29 21:33N 40°52' E 029°11'0 0.3
2016-Apr-29 20:33N 40°53' E 029°11'0 0.0
2016-Apr-29 19:33N 40°53' E 029°11'0 0.0
2016-Apr-29 18:31N 40°53' E 029°11'0 0.0
2016-Apr-29 17:31N 40°53' E 029°11'0 0.0
2016-Apr-29 16:24N 40°53' E 029°11'0 0.0
2016-Apr-29 15:27N 40°53' E 029°11'0 0.0
2016-Apr-29 14:29N 40°53' E 029°11'0 0.1
2016-Apr-29 13:20N 40°53' E 029°12'0 0.0
2016-Apr-29 12:13N 40°53' E 029°12'0 0.0
2016-Apr-29 11:20N 40°53' E 029°12'0 0.0
2016-Apr-29 10:30N 40°53' E 029°11'0 0.0
2016-Apr-29 09:31N 40°53' E 029°12'3 3.3
2016-Apr-29 08:33N 40°50' E 029°09'8 7.6
2016-Apr-29 07:31N 40°51' E 028°58'8 1.0
2016-Apr-28 23:32N 40°59' E 028°55'  
2016-Apr-26 12:10N 46°25' E 030°55'5 7.7
2016-Apr-26 11:31N 46°30' E 030°55'43 7.2
2016-Apr-26 05:34N 46°40' E 031°56'7 7.4
2016-Apr-26 04:33N 46°48' E 031°53'5 5.4
2016-Apr-26 03:33N 46°51' E 031°59'0 0.1
2016-Apr-26 02:33N 46°51' E 031°59'0 0.0
2016-Apr-26 01:33N 46°51' E 031°59'0 0.0
2016-Apr-26 00:33N 46°51' E 031°59'0 0.0
2016-Apr-25 23:33N 46°51' E 031°59'0 0.0
2016-Apr-25 22:33N 46°51' E 031°59'0 0.0
2016-Apr-25 21:33N 46°51' E 031°59'0 0.0
2016-Apr-25 20:33N 46°51' E 031°59'0 0.0
2016-Apr-25 19:32N 46°51' E 031°59'0 0.0
2016-Apr-25 18:33N 46°51' E 031°59'0 0.0
2016-Apr-25 17:29N 46°51' E 031°59'0 0.0
2016-Apr-25 16:33N 46°51' E 031°59'0 0.0
2016-Apr-25 15:28N 46°51' E 031°59'0 0.0
2016-Apr-25 14:32N 46°51' E 031°59'0 0.0
2016-Apr-25 13:32N 46°51' E 031°59'0 0.0
2016-Apr-25 12:32N 46°51' E 031°59'0 0.0
2016-Apr-25 11:33N 46°51' E 031°59'0 0.0
2016-Apr-25 10:30N 46°51' E 031°59'0 0.0
2016-Apr-25 08:29N 46°51' E 031°59'0 0.0
2016-Apr-25 07:32N 46°51' E 031°59'0 0.0
2016-Apr-25 06:32N 46°51' E 031°59'0 0.0
2016-Apr-25 05:31N 46°51' E 031°59'0 0.0
2016-Apr-25 04:32N 46°51' E 031°59'0 0.0
2016-Apr-25 03:32N 46°51' E 031°59'0 0.0
2016-Apr-25 02:31N 46°51' E 031°59'0 0.0
2016-Apr-25 01:28N 46°51' E 031°59'0 0.0
2016-Apr-25 00:32N 46°51' E 031°59'0 0.0
2016-Apr-24 23:31N 46°51' E 031°59'0 0.0
2016-Apr-24 22:33N 46°51' E 031°59'0 0.0
2016-Apr-24 21:31N 46°51' E 031°59'0 0.0
2016-Apr-24 20:33N 46°51' E 031°59'0 0.0
2016-Apr-24 19:31N 46°51' E 031°59'0 0.0
2016-Apr-24 18:31N 46°51' E 031°59'0 0.0
2016-Apr-24 17:34N 46°51' E 031°59'0 0.0
2016-Apr-24 16:33N 46°51' E 031°59'0 0.0
2016-Apr-24 15:29N 46°51' E 031°59'0 0.0
2016-Apr-24 14:31N 46°51' E 031°59'0 0.0
2016-Apr-24 13:31N 46°51' E 031°59'0 0.0
2016-Apr-24 12:33N 46°51' E 031°59'0 0.0
2016-Apr-24 11:32N 46°51' E 031°59'0 0.0
2016-Apr-24 10:32N 46°51' E 031°59'0 0.0
2016-Apr-24 09:32N 46°51' E 031°59'0 0.0
2016-Apr-24 08:33N 46°51' E 031°59'0 0.0
2016-Apr-24 07:32N 46°51' E 031°59'0 0.0
2016-Apr-24 06:31N 46°51' E 031°59'0 0.0
2016-Apr-24 05:27N 46°51' E 031°59'0 0.0
2016-Apr-24 04:28N 46°51' E 031°59'0 0.0
2016-Apr-23 23:21N 46°51' E 031°59'0 0.0
2016-Apr-23 22:30N 46°51' E 031°59'0 0.0
2016-Apr-23 21:33N 46°51' E 031°59'0 0.0
2016-Apr-23 20:31N 46°51' E 031°59'0 0.0
2016-Apr-23 19:33N 46°51' E 031°59'0 0.0
2016-Apr-23 18:29N 46°51' E 031°59'0 0.0
2016-Apr-23 17:26N 46°51' E 031°59'0 0.0
2016-Apr-23 16:30N 46°51' E 031°59'0 0.0
2016-Apr-23 15:31N 46°51' E 031°59'0 0.0
2016-Apr-23 14:30N 46°51' E 031°59'0 0.0
2016-Apr-23 13:33N 46°51' E 031°59'0 0.0
2016-Apr-23 12:32N 46°51' E 031°59'0 0.0
2016-Apr-23 11:32N 46°51' E 031°59'1 1.3
2016-Apr-23 10:33N 46°51' E 031°57'7 6.7
2016-Apr-23 09:33N 46°44' E 031°55'  
Track history (hours):
 
Tides and Currents Weather Stations Pressure Air Temp Water Temp Dewpoint Dewpoint Depression Visibility Wind Speed Wind Dir Waves Ship Positions

Callsign TCBX9 (name unknown)

Last reported at 2016-May-03 09:33 UTC. Time now 2016-May-06 05:29 UTC.
Position N 33°44' E 032°20'.

Date/timePositionNaut miles runAvg speedWind from/ knotsBaromVisibWave heightAir tempDewpointWater temp
2016-May-03 09:33N 33°44' E 032°20'9 8.1
2016-May-03 08:25N 33°50' E 032°12'7 8.1
2016-May-03 07:33N 33°55' E 032°06'262 7.7
2016-May-01 21:23N 36°29' E 027°46'7 8.3
2016-May-01 20:31N 36°31' E 027°38'8 8.7
2016-May-01 19:34N 36°36' E 027°29'9 8.4
2016-May-01 18:31N 36°40' E 027°19'15 7.6
2016-May-01 16:29N 36°56' E 027°18'10 8.3
2016-May-01 15:15N 37°00' E 027°07'247 6.0
2016-Apr-29 22:19N 40°48' E 029°07'5 7.1
2016-Apr-29 21:33N 40°52' E 029°11'0 0.3
2016-Apr-29 20:33N 40°53' E 029°11'0 0.0
2016-Apr-29 19:33N 40°53' E 029°11'0 0.0
2016-Apr-29 18:31N 40°53' E 029°11'0 0.0
2016-Apr-29 17:31N 40°53' E 029°11'0 0.0
2016-Apr-29 16:24N 40°53' E 029°11'0 0.0
2016-Apr-29 15:27N 40°53' E 029°11'0 0.0
2016-Apr-29 14:29N 40°53' E 029°11'0 0.1
2016-Apr-29 13:20N 40°53' E 029°12'0 0.0
2016-Apr-29 12:13N 40°53' E 029°12'0 0.0
2016-Apr-29 11:20N 40°53' E 029°12'0 0.0
2016-Apr-29 10:30N 40°53' E 029°11'0 0.0
2016-Apr-29 09:31N 40°53' E 029°12'3 3.3
2016-Apr-29 08:33N 40°50' E 029°09'8 7.6
2016-Apr-29 07:31N 40°51' E 028°58'8 1.0
2016-Apr-28 23:32N 40°59' E 028°55'  
2016-Apr-26 12:10N 46°25' E 030°55'5 7.7
2016-Apr-26 11:31N 46°30' E 030°55'43 7.2
2016-Apr-26 05:34N 46°40' E 031°56'7 7.4
2016-Apr-26 04:33N 46°48' E 031°53'5 5.4
2016-Apr-26 03:33N 46°51' E 031°59'0 0.1
2016-Apr-26 02:33N 46°51' E 031°59'0 0.0
2016-Apr-26 01:33N 46°51' E 031°59'0 0.0
2016-Apr-26 00:33N 46°51' E 031°59'0 0.0
2016-Apr-25 23:33N 46°51' E 031°59'0 0.0
2016-Apr-25 22:33N 46°51' E 031°59'0 0.0
2016-Apr-25 21:33N 46°51' E 031°59'0 0.0
2016-Apr-25 20:33N 46°51' E 031°59'0 0.0
2016-Apr-25 19:32N 46°51' E 031°59'0 0.0
2016-Apr-25 18:33N 46°51' E 031°59'0 0.0
2016-Apr-25 17:29N 46°51' E 031°59'0 0.0
2016-Apr-25 16:33N 46°51' E 031°59'0 0.0
2016-Apr-25 15:28N 46°51' E 031°59'0 0.0
2016-Apr-25 14:32N 46°51' E 031°59'0 0.0
2016-Apr-25 13:32N 46°51' E 031°59'0 0.0
2016-Apr-25 12:32N 46°51' E 031°59'0 0.0
2016-Apr-25 11:33N 46°51' E 031°59'0 0.0
2016-Apr-25 10:30N 46°51' E 031°59'0 0.0
2016-Apr-25 08:29N 46°51' E 031°59'0 0.0
2016-Apr-25 07:32N 46°51' E 031°59'0 0.0
2016-Apr-25 06:32N 46°51' E 031°59'0 0.0
2016-Apr-25 05:31N 46°51' E 031°59'0 0.0
2016-Apr-25 04:32N 46°51' E 031°59'0 0.0
2016-Apr-25 03:32N 46°51' E 031°59'0 0.0
2016-Apr-25 02:31N 46°51' E 031°59'0 0.0
2016-Apr-25 01:28N 46°51' E 031°59'0 0.0
2016-Apr-25 00:32N 46°51' E 031°59'0 0.0
2016-Apr-24 23:31N 46°51' E 031°59'0 0.0
2016-Apr-24 22:33N 46°51' E 031°59'0 0.0
2016-Apr-24 21:31N 46°51' E 031°59'0 0.0
2016-Apr-24 20:33N 46°51' E 031°59'0 0.0
2016-Apr-24 19:31N 46°51' E 031°59'0 0.0
2016-Apr-24 18:31N 46°51' E 031°59'0 0.0
2016-Apr-24 17:34N 46°51' E 031°59'0 0.0
2016-Apr-24 16:33N 46°51' E 031°59'0 0.0
2016-Apr-24 15:29N 46°51' E 031°59'0 0.0
2016-Apr-24 14:31N 46°51' E 031°59'0 0.0
2016-Apr-24 13:31N 46°51' E 031°59'0 0.0
2016-Apr-24 12:33N 46°51' E 031°59'0 0.0
2016-Apr-24 11:32N 46°51' E 031°59'0 0.0
2016-Apr-24 10:32N 46°51' E 031°59'0 0.0
2016-Apr-24 09:32N 46°51' E 031°59'0 0.0
2016-Apr-24 08:33N 46°51' E 031°59'0 0.0
2016-Apr-24 07:32N 46°51' E 031°59'0 0.0
2016-Apr-24 06:31N 46°51' E 031°59'0 0.0
2016-Apr-24 05:27N 46°51' E 031°59'0 0.0
2016-Apr-24 04:28N 46°51' E 031°59'0 0.0
2016-Apr-23 23:21N 46°51' E 031°59'0 0.0
2016-Apr-23 22:30N 46°51' E 031°59'0 0.0
2016-Apr-23 21:33N 46°51' E 031°59'0 0.0
2016-Apr-23 20:31N 46°51' E 031°59'0 0.0
2016-Apr-23 19:33N 46°51' E 031°59'0 0.0
2016-Apr-23 18:29N 46°51' E 031°59'0 0.0
2016-Apr-23 17:26N 46°51' E 031°59'0 0.0
2016-Apr-23 16:30N 46°51' E 031°59'0 0.0
2016-Apr-23 15:31N 46°51' E 031°59'0 0.0
2016-Apr-23 14:30N 46°51' E 031°59'0 0.0
2016-Apr-23 13:33N 46°51' E 031°59'0 0.0
2016-Apr-23 12:32N 46°51' E 031°59'0 0.0
2016-Apr-23 11:32N 46°51' E 031°59'1 1.3
2016-Apr-23 10:33N 46°51' E 031°57'7 6.7
2016-Apr-23 09:33N 46°44' E 031°55'  

Dump ship's entire track history